sensor_id;sensor_type;location;lat;lon;timestamp;P1;durP1;ratioP1;P2;durP2;ratioP2
7359;SDS011;3720;48.274;7.796;2023-06-05T00:01:39;4.95;;;3.00;;
7359;SDS011;3720;48.274;7.796;2023-06-05T00:04:11;6.18;;;3.05;;
7359;SDS011;3720;48.274;7.796;2023-06-05T00:06:44;3.60;;;2.85;;
7359;SDS011;3720;48.274;7.796;2023-06-05T00:09:16;5.45;;;3.05;;
7359;SDS011;3720;48.274;7.796;2023-06-05T00:11:48;5.57;;;3.42;;
7359;SDS011;3720;48.274;7.796;2023-06-05T00:14:21;5.10;;;3.15;;
7359;SDS011;3720;48.274;7.796;2023-06-05T00:16:52;6.25;;;2.90;;
7359;SDS011;3720;48.274;7.796;2023-06-05T00:19:26;4.80;;;2.67;;
7359;SDS011;3720;48.274;7.796;2023-06-05T00:21:59;4.40;;;3.00;;
7359;SDS011;3720;48.274;7.796;2023-06-05T00:24:31;4.25;;;2.75;;
7359;SDS011;3720;48.274;7.796;2023-06-05T00:27:03;4.90;;;3.30;;
7359;SDS011;3720;48.274;7.796;2023-06-05T00:29:36;3.75;;;2.70;;
7359;SDS011;3720;48.274;7.796;2023-06-05T00:32:08;3.90;;;2.90;;
7359;SDS011;3720;48.274;7.796;2023-06-05T00:34:40;4.10;;;2.88;;
7359;SDS011;3720;48.274;7.796;2023-06-05T00:37:13;3.92;;;2.85;;
7359;SDS011;3720;48.274;7.796;2023-06-05T00:39:45;4.05;;;2.88;;
7359;SDS011;3720;48.274;7.796;2023-06-05T00:42:17;4.25;;;2.75;;
7359;SDS011;3720;48.274;7.796;2023-06-05T00:44:49;4.88;;;3.00;;
7359;SDS011;3720;48.274;7.796;2023-06-05T00:47:21;4.55;;;2.90;;
7359;SDS011;3720;48.274;7.796;2023-06-05T00:49:53;4.85;;;2.90;;
7359;SDS011;3720;48.274;7.796;2023-06-05T00:52:27;5.03;;;3.05;;
7359;SDS011;3720;48.274;7.796;2023-06-05T00:54:59;5.50;;;2.90;;
7359;SDS011;3720;48.274;7.796;2023-06-05T00:57:32;5.18;;;2.80;;
7359;SDS011;3720;48.274;7.796;2023-06-05T01:00:06;4.72;;;3.33;;
7359;SDS011;3720;48.274;7.796;2023-06-05T01:02:42;5.60;;;3.45;;
7359;SDS011;3720;48.274;7.796;2023-06-05T01:05:14;5.25;;;3.72;;
7359;SDS011;3720;48.274;7.796;2023-06-05T01:07:48;6.68;;;4.10;;
7359;SDS011;3720;48.274;7.796;2023-06-05T01:10:20;6.65;;;3.92;;
7359;SDS011;3720;48.274;7.796;2023-06-05T01:12:53;6.60;;;4.40;;
7359;SDS011;3720;48.274;7.796;2023-06-05T01:15:29;8.63;;;5.00;;
7359;SDS011;3720;48.274;7.796;2023-06-05T01:18:04;7.78;;;5.45;;
7359;SDS011;3720;48.274;7.796;2023-06-05T01:20:37;8.35;;;6.05;;
7359;SDS011;3720;48.274;7.796;2023-06-05T01:23:13;7.10;;;5.50;;
7359;SDS011;3720;48.274;7.796;2023-06-05T01:25:45;9.80;;;5.40;;
7359;SDS011;3720;48.274;7.796;2023-06-05T01:28:17;6.43;;;5.05;;
7359;SDS011;3720;48.274;7.796;2023-06-05T01:30:54;7.68;;;5.30;;
7359;SDS011;3720;48.274;7.796;2023-06-05T01:33:36;8.10;;;5.57;;
7359;SDS011;3720;48.274;7.796;2023-06-05T01:36:13;9.00;;;5.70;;
7359;SDS011;3720;48.274;7.796;2023-06-05T01:38:48;8.27;;;5.60;;
7359;SDS011;3720;48.274;7.796;2023-06-05T01:41:22;8.82;;;5.80;;
7359;SDS011;3720;48.274;7.796;2023-06-05T01:43:55;8.88;;;6.05;;
7359;SDS011;3720;48.274;7.796;2023-06-05T01:46:27;6.75;;;5.15;;
7359;SDS011;3720;48.274;7.796;2023-06-05T01:49:00;9.57;;;5.70;;
7359;SDS011;3720;48.274;7.796;2023-06-05T01:51:32;9.23;;;6.05;;
7359;SDS011;3720;48.274;7.796;2023-06-05T01:54:07;10.60;;;6.07;;
7359;SDS011;3720;48.274;7.796;2023-06-05T01:56:39;7.63;;;5.55;;
7359;SDS011;3720;48.274;7.796;2023-06-05T01:59:12;8.40;;;6.00;;
7359;SDS011;3720;48.274;7.796;2023-06-05T02:01:46;8.75;;;5.32;;
7359;SDS011;3720;48.274;7.796;2023-06-05T02:04:19;7.35;;;5.40;;
7359;SDS011;3720;48.274;7.796;2023-06-05T02:06:51;7.28;;;5.28;;
7359;SDS011;3720;48.274;7.796;2023-06-05T02:09:25;7.15;;;5.07;;
7359;SDS011;3720;48.274;7.796;2023-06-05T02:11:56;8.07;;;5.10;;
7359;SDS011;3720;48.274;7.796;2023-06-05T02:14:33;9.98;;;5.45;;
7359;SDS011;3720;48.274;7.796;2023-06-05T02:17:07;9.10;;;5.18;;
7359;SDS011;3720;48.274;7.796;2023-06-05T02:19:39;6.38;;;4.60;;
7359;SDS011;3720;48.274;7.796;2023-06-05T02:22:11;6.13;;;4.32;;
7359;SDS011;3720;48.274;7.796;2023-06-05T02:24:44;5.78;;;4.65;;
7359;SDS011;3720;48.274;7.796;2023-06-05T02:27:16;6.43;;;5.00;;
7359;SDS011;3720;48.274;7.796;2023-06-05T02:29:49;7.47;;;5.20;;
7359;SDS011;3720;48.274;7.796;2023-06-05T02:32:21;7.28;;;5.28;;
7359;SDS011;3720;48.274;7.796;2023-06-05T02:34:56;7.85;;;5.32;;
7359;SDS011;3720;48.274;7.796;2023-06-05T02:37:28;7.90;;;5.25;;
7359;SDS011;3720;48.274;7.796;2023-06-05T02:40:10;6.90;;;5.30;;
7359;SDS011;3720;48.274;7.796;2023-06-05T02:42:43;9.85;;;5.63;;
7359;SDS011;3720;48.274;7.796;2023-06-05T02:45:15;6.80;;;5.10;;
7359;SDS011;3720;48.274;7.796;2023-06-05T02:47:47;6.90;;;5.40;;
7359;SDS011;3720;48.274;7.796;2023-06-05T02:50:19;9.07;;;5.32;;
7359;SDS011;3720;48.274;7.796;2023-06-05T02:52:51;6.93;;;5.22;;
7359;SDS011;3720;48.274;7.796;2023-06-05T02:55:25;9.18;;;5.63;;
7359;SDS011;3720;48.274;7.796;2023-06-05T02:57:59;7.57;;;5.22;;
7359;SDS011;3720;48.274;7.796;2023-06-05T03:00:31;7.05;;;5.35;;
7359;SDS011;3720;48.274;7.796;2023-06-05T03:03:03;8.90;;;5.63;;
7359;SDS011;3720;48.274;7.796;2023-06-05T03:05:36;8.30;;;5.30;;
7359;SDS011;3720;48.274;7.796;2023-06-05T03:08:08;6.82;;;5.07;;
7359;SDS011;3720;48.274;7.796;2023-06-05T03:10:42;8.05;;;5.35;;
7359;SDS011;3720;48.274;7.796;2023-06-05T03:13:14;10.27;;;4.80;;
7359;SDS011;3720;48.274;7.796;2023-06-05T03:15:45;6.72;;;5.20;;
7359;SDS011;3720;48.274;7.796;2023-06-05T03:18:17;7.15;;;4.93;;
7359;SDS011;3720;48.274;7.796;2023-06-05T03:20:49;6.18;;;4.85;;
7359;SDS011;3720;48.274;7.796;2023-06-05T03:23:25;8.63;;;5.00;;
7359;SDS011;3720;48.274;7.796;2023-06-05T03:26:00;7.18;;;4.72;;
7359;SDS011;3720;48.274;7.796;2023-06-05T03:28:32;6.55;;;5.05;;
7359;SDS011;3720;48.274;7.796;2023-06-05T03:31:04;6.60;;;4.97;;
7359;SDS011;3720;48.274;7.796;2023-06-05T03:33:36;7.15;;;5.20;;
7359;SDS011;3720;48.274;7.796;2023-06-05T03:36:08;6.80;;;4.88;;
7359;SDS011;3720;48.274;7.796;2023-06-05T03:38:40;6.57;;;4.68;;
7359;SDS011;3720;48.274;7.796;2023-06-05T03:41:13;7.68;;;5.15;;
7359;SDS011;3720;48.274;7.796;2023-06-05T03:43:45;6.93;;;4.80;;
7359;SDS011;3720;48.274;7.796;2023-06-05T03:46:17;7.70;;;5.28;;
7359;SDS011;3720;48.274;7.796;2023-06-05T03:48:49;7.63;;;5.35;;
7359;SDS011;3720;48.274;7.796;2023-06-05T03:51:28;7.63;;;5.32;;
7359;SDS011;3720;48.274;7.796;2023-06-05T03:54:00;7.32;;;5.18;;
7359;SDS011;3720;48.274;7.796;2023-06-05T03:56:35;8.38;;;5.03;;
7359;SDS011;3720;48.274;7.796;2023-06-05T03:59:12;6.68;;;5.03;;
7359;SDS011;3720;48.274;7.796;2023-06-05T04:01:49;5.85;;;4.82;;
7359;SDS011;3720;48.274;7.796;2023-06-05T04:04:21;6.68;;;4.78;;
7359;SDS011;3720;48.274;7.796;2023-06-05T04:06:54;8.70;;;5.00;;
7359;SDS011;3720;48.274;7.796;2023-06-05T04:09:26;9.25;;;5.40;;
7359;SDS011;3720;48.274;7.796;2023-06-05T04:12:00;8.38;;;5.22;;
7359;SDS011;3720;48.274;7.796;2023-06-05T04:14:32;6.65;;;5.15;;
7359;SDS011;3720;48.274;7.796;2023-06-05T04:17:04;7.60;;;5.50;;
7359;SDS011;3720;48.274;7.796;2023-06-05T04:19:36;7.88;;;5.18;;
7359;SDS011;3720;48.274;7.796;2023-06-05T04:22:08;6.97;;;4.72;;
7359;SDS011;3720;48.274;7.796;2023-06-05T04:24:40;9.23;;;5.30;;
7359;SDS011;3720;48.274;7.796;2023-06-05T04:27:13;7.15;;;4.85;;
7359;SDS011;3720;48.274;7.796;2023-06-05T04:29:47;7.00;;;4.78;;
7359;SDS011;3720;48.274;7.796;2023-06-05T04:32:19;6.82;;;4.80;;
7359;SDS011;3720;48.274;7.796;2023-06-05T04:34:51;8.48;;;4.55;;
7359;SDS011;3720;48.274;7.796;2023-06-05T04:37:23;8.35;;;4.70;;
7359;SDS011;3720;48.274;7.796;2023-06-05T04:39:55;6.45;;;4.50;;
7359;SDS011;3720;48.274;7.796;2023-06-05T04:42:29;8.18;;;4.35;;
7359;SDS011;3720;48.274;7.796;2023-06-05T04:45:03;6.25;;;4.60;;
7359;SDS011;3720;48.274;7.796;2023-06-05T04:47:37;9.38;;;4.82;;
7359;SDS011;3720;48.274;7.796;2023-06-05T04:50:09;5.90;;;4.47;;
7359;SDS011;3720;48.274;7.796;2023-06-05T04:52:54;6.78;;;4.63;;
7359;SDS011;3720;48.274;7.796;2023-06-05T04:55:26;6.25;;;4.80;;
7359;SDS011;3720;48.274;7.796;2023-06-05T04:57:59;9.52;;;5.10;;
7359;SDS011;3720;48.274;7.796;2023-06-05T05:00:32;7.50;;;5.00;;
7359;SDS011;3720;48.274;7.796;2023-06-05T05:03:05;9.38;;;4.90;;
7359;SDS011;3720;48.274;7.796;2023-06-05T05:05:37;8.57;;;4.80;;
7359;SDS011;3720;48.274;7.796;2023-06-05T05:08:09;8.38;;;4.70;;
7359;SDS011;3720;48.274;7.796;2023-06-05T05:10:41;10.63;;;4.97;;
7359;SDS011;3720;48.274;7.796;2023-06-05T05:13:14;7.78;;;4.63;;
7359;SDS011;3720;48.274;7.796;2023-06-05T05:15:46;10.30;;;5.25;;
7359;SDS011;3720;48.274;7.796;2023-06-05T05:18:18;8.10;;;4.93;;
7359;SDS011;3720;48.274;7.796;2023-06-05T05:20:50;6.35;;;4.22;;
7359;SDS011;3720;48.274;7.796;2023-06-05T05:23:23;9.07;;;4.57;;
7359;SDS011;3720;48.274;7.796;2023-06-05T05:25:55;5.95;;;4.35;;
7359;SDS011;3720;48.274;7.796;2023-06-05T05:28:29;7.38;;;4.63;;
7359;SDS011;3720;48.274;7.796;2023-06-05T05:31:01;9.63;;;4.20;;
7359;SDS011;3720;48.274;7.796;2023-06-05T05:33:33;12.75;;;4.20;;
7359;SDS011;3720;48.274;7.796;2023-06-05T05:36:05;6.30;;;4.10;;
7359;SDS011;3720;48.274;7.796;2023-06-05T05:38:36;7.07;;;4.18;;
7359;SDS011;3720;48.274;7.796;2023-06-05T05:41:08;6.55;;;4.30;;
7359;SDS011;3720;48.274;7.796;2023-06-05T05:43:42;6.15;;;3.80;;
7359;SDS011;3720;48.274;7.796;2023-06-05T05:46:13;6.55;;;3.97;;
7359;SDS011;3720;48.274;7.796;2023-06-05T05:48:45;7.07;;;3.95;;
7359;SDS011;3720;48.274;7.796;2023-06-05T05:51:18;6.20;;;4.22;;
7359;SDS011;3720;48.274;7.796;2023-06-05T05:53:51;8.60;;;4.65;;
7359;SDS011;3720;48.274;7.796;2023-06-05T05:56:25;7.47;;;4.40;;
7359;SDS011;3720;48.274;7.796;2023-06-05T05:59:04;7.78;;;4.50;;
7359;SDS011;3720;48.274;7.796;2023-06-05T06:01:40;5.90;;;4.30;;
7359;SDS011;3720;48.274;7.796;2023-06-05T06:04:12;8.05;;;3.78;;
7359;SDS011;3720;48.274;7.796;2023-06-05T06:06:44;5.03;;;3.97;;
7359;SDS011;3720;48.274;7.796;2023-06-05T06:09:18;6.20;;;4.00;;
7359;SDS011;3720;48.274;7.796;2023-06-05T06:11:49;6.45;;;3.83;;
7359;SDS011;3720;48.274;7.796;2023-06-05T06:14:26;5.63;;;3.80;;
7359;SDS011;3720;48.274;7.796;2023-06-05T06:16:58;5.50;;;3.78;;
7359;SDS011;3720;48.274;7.796;2023-06-05T06:19:30;5.35;;;3.60;;
7359;SDS011;3720;48.274;7.796;2023-06-05T06:22:03;7.15;;;3.95;;
7359;SDS011;3720;48.274;7.796;2023-06-05T06:24:42;5.05;;;3.10;;
7359;SDS011;3720;48.274;7.796;2023-06-05T06:27:14;8.70;;;3.63;;
7359;SDS011;3720;48.274;7.796;2023-06-05T06:29:49;5.30;;;3.50;;
7359;SDS011;3720;48.274;7.796;2023-06-05T06:32:22;9.13;;;3.65;;
7359;SDS011;3720;48.274;7.796;2023-06-05T06:34:56;4.82;;;2.78;;
7359;SDS011;3720;48.274;7.796;2023-06-05T06:37:28;4.95;;;3.30;;
7359;SDS011;3720;48.274;7.796;2023-06-05T06:40:00;4.75;;;3.30;;
7359;SDS011;3720;48.274;7.796;2023-06-05T06:42:33;6.95;;;3.35;;
7359;SDS011;3720;48.274;7.796;2023-06-05T06:45:07;5.10;;;3.17;;
7359;SDS011;3720;48.274;7.796;2023-06-05T06:47:39;4.60;;;3.00;;
7359;SDS011;3720;48.274;7.796;2023-06-05T06:50:12;6.93;;;2.97;;
7359;SDS011;3720;48.274;7.796;2023-06-05T06:52:44;6.22;;;3.00;;
7359;SDS011;3720;48.274;7.796;2023-06-05T06:55:16;6.47;;;3.05;;
7359;SDS011;3720;48.274;7.796;2023-06-05T06:57:48;5.53;;;3.00;;
7359;SDS011;3720;48.274;7.796;2023-06-05T07:00:22;8.30;;;2.90;;
7359;SDS011;3720;48.274;7.796;2023-06-05T07:02:54;4.35;;;3.05;;
7359;SDS011;3720;48.274;7.796;2023-06-05T07:05:26;4.60;;;2.70;;
7359;SDS011;3720;48.274;7.796;2023-06-05T07:07:58;4.82;;;2.90;;
7359;SDS011;3720;48.274;7.796;2023-06-05T07:10:31;5.43;;;2.80;;
7359;SDS011;3720;48.274;7.796;2023-06-05T07:13:03;4.22;;;2.80;;
7359;SDS011;3720;48.274;7.796;2023-06-05T07:15:36;5.20;;;2.67;;
7359;SDS011;3720;48.274;7.796;2023-06-05T07:18:08;8.35;;;3.20;;
7359;SDS011;3720;48.274;7.796;2023-06-05T07:20:40;3.70;;;2.72;;
7359;SDS011;3720;48.274;7.796;2023-06-05T07:23:12;6.00;;;2.70;;
7359;SDS011;3720;48.274;7.796;2023-06-05T07:25:47;6.05;;;2.60;;
7359;SDS011;3720;48.274;7.796;2023-06-05T07:28:21;8.05;;;2.90;;
7359;SDS011;3720;48.274;7.796;2023-06-05T07:30:56;3.70;;;2.80;;
7359;SDS011;3720;48.274;7.796;2023-06-05T07:33:30;3.58;;;2.45;;
7359;SDS011;3720;48.274;7.796;2023-06-05T07:36:02;5.40;;;2.90;;
7359;SDS011;3720;48.274;7.796;2023-06-05T07:38:34;5.63;;;2.85;;
7359;SDS011;3720;48.274;7.796;2023-06-05T07:41:08;7.85;;;2.72;;
7359;SDS011;3720;48.274;7.796;2023-06-05T07:43:42;4.50;;;2.60;;
7359;SDS011;3720;48.274;7.796;2023-06-05T07:46:15;3.83;;;2.50;;
7359;SDS011;3720;48.274;7.796;2023-06-05T07:48:47;8.00;;;3.00;;
7359;SDS011;3720;48.274;7.796;2023-06-05T07:51:19;5.50;;;2.65;;
7359;SDS011;3720;48.274;7.796;2023-06-05T07:53:51;5.70;;;2.80;;
7359;SDS011;3720;48.274;7.796;2023-06-05T07:56:22;6.60;;;2.70;;
7359;SDS011;3720;48.274;7.796;2023-06-05T07:58:55;4.47;;;2.60;;
7359;SDS011;3720;48.274;7.796;2023-06-05T08:01:28;5.10;;;2.67;;
7359;SDS011;3720;48.274;7.796;2023-06-05T08:04:02;5.68;;;3.20;;
7359;SDS011;3720;48.274;7.796;2023-06-05T08:06:34;6.15;;;3.00;;
7359;SDS011;3720;48.274;7.796;2023-06-05T08:09:08;5.57;;;2.80;;
7359;SDS011;3720;48.274;7.796;2023-06-05T08:11:40;6.15;;;2.85;;
7359;SDS011;3720;48.274;7.796;2023-06-05T08:14:12;5.50;;;2.78;;
7359;SDS011;3720;48.274;7.796;2023-06-05T08:16:46;6.88;;;3.35;;
7359;SDS011;3720;48.274;7.796;2023-06-05T08:19:18;7.88;;;2.97;;
7359;SDS011;3720;48.274;7.796;2023-06-05T08:21:50;7.90;;;2.70;;
7359;SDS011;3720;48.274;7.796;2023-06-05T08:24:24;5.38;;;3.10;;
7359;SDS011;3720;48.274;7.796;2023-06-05T08:26:57;4.40;;;2.60;;
7359;SDS011;3720;48.274;7.796;2023-06-05T08:29:30;7.68;;;2.85;;
7359;SDS011;3720;48.274;7.796;2023-06-05T08:32:07;5.57;;;2.30;;
7359;SDS011;3720;48.274;7.796;2023-06-05T08:34:39;5.32;;;2.80;;
7359;SDS011;3720;48.274;7.796;2023-06-05T08:37:11;7.22;;;2.80;;
7359;SDS011;3720;48.274;7.796;2023-06-05T08:39:43;6.57;;;2.75;;
7359;SDS011;3720;48.274;7.796;2023-06-05T08:42:17;4.72;;;2.53;;
7359;SDS011;3720;48.274;7.796;2023-06-05T08:44:50;3.65;;;2.42;;
7359;SDS011;3720;48.274;7.796;2023-06-05T08:47:23;3.95;;;2.60;;
7359;SDS011;3720;48.274;7.796;2023-06-05T08:50:01;9.30;;;2.80;;
7359;SDS011;3720;48.274;7.796;2023-06-05T08:52:37;5.57;;;2.58;;
7359;SDS011;3720;48.274;7.796;2023-06-05T08:55:09;4.13;;;2.58;;
7359;SDS011;3720;48.274;7.796;2023-06-05T08:57:42;5.20;;;2.70;;
7359;SDS011;3720;48.274;7.796;2023-06-05T09:00:15;7.35;;;2.80;;
7359;SDS011;3720;48.274;7.796;2023-06-05T09:02:49;11.75;;;3.00;;
7359;SDS011;3720;48.274;7.796;2023-06-05T09:05:21;3.88;;;2.60;;
7359;SDS011;3720;48.274;7.796;2023-06-05T09:07:53;5.72;;;2.70;;
7359;SDS011;3720;48.274;7.796;2023-06-05T09:10:25;8.25;;;2.97;;
7359;SDS011;3720;48.274;7.796;2023-06-05T09:12:59;11.00;;;2.97;;
7359;SDS011;3720;48.274;7.796;2023-06-05T09:15:32;6.43;;;3.00;;
7359;SDS011;3720;48.274;7.796;2023-06-05T09:18:07;6.03;;;2.90;;
7359;SDS011;3720;48.274;7.796;2023-06-05T09:20:41;7.32;;;2.80;;
7359;SDS011;3720;48.274;7.796;2023-06-05T09:23:26;9.55;;;3.00;;
7359;SDS011;3720;48.274;7.796;2023-06-05T09:25:59;7.70;;;2.88;;
7359;SDS011;3720;48.274;7.796;2023-06-05T09:28:33;6.07;;;2.90;;
7359;SDS011;3720;48.274;7.796;2023-06-05T09:31:05;6.40;;;2.80;;
7359;SDS011;3720;48.274;7.796;2023-06-05T09:33:38;7.40;;;3.00;;
7359;SDS011;3720;48.274;7.796;2023-06-05T09:36:11;6.65;;;2.80;;
7359;SDS011;3720;48.274;7.796;2023-06-05T09:38:44;7.93;;;2.80;;
7359;SDS011;3720;48.274;7.796;2023-06-05T09:41:16;7.78;;;2.70;;
7359;SDS011;3720;48.274;7.796;2023-06-05T09:43:49;5.63;;;2.78;;
7359;SDS011;3720;48.274;7.796;2023-06-05T09:46:21;7.35;;;2.97;;
7359;SDS011;3720;48.274;7.796;2023-06-05T09:48:57;6.38;;;2.90;;
7359;SDS011;3720;48.274;7.796;2023-06-05T09:51:30;6.95;;;3.00;;
7359;SDS011;3720;48.274;7.796;2023-06-05T09:54:02;9.00;;;3.08;;
7359;SDS011;3720;48.274;7.796;2023-06-05T09:56:35;7.25;;;2.95;;
7359;SDS011;3720;48.274;7.796;2023-06-05T09:59:08;6.47;;;2.90;;
7359;SDS011;3720;48.274;7.796;2023-06-05T10:01:41;7.00;;;2.90;;
7359;SDS011;3720;48.274;7.796;2023-06-05T10:04:16;8.30;;;2.75;;
7359;SDS011;3720;48.274;7.796;2023-06-05T10:06:51;6.35;;;3.25;;
7359;SDS011;3720;48.274;7.796;2023-06-05T10:09:26;4.97;;;2.75;;
7359;SDS011;3720;48.274;7.796;2023-06-05T10:12:00;7.05;;;3.63;;
7359;SDS011;3720;48.274;7.796;2023-06-05T10:14:34;6.90;;;2.95;;
7359;SDS011;3720;48.274;7.796;2023-06-05T10:17:07;6.63;;;2.72;;
7359;SDS011;3720;48.274;7.796;2023-06-05T10:19:42;5.68;;;2.90;;
7359;SDS011;3720;48.274;7.796;2023-06-05T10:22:16;5.85;;;2.88;;
7359;SDS011;3720;48.274;7.796;2023-06-05T10:24:51;5.55;;;3.28;;
7359;SDS011;3720;48.274;7.796;2023-06-05T10:27:40;7.45;;;3.20;;
7359;SDS011;3720;48.274;7.796;2023-06-05T10:30:28;5.22;;;2.97;;
7359;SDS011;3720;48.274;7.796;2023-06-05T10:33:36;4.28;;;2.72;;
7359;SDS011;3720;48.274;7.796;2023-06-05T10:36:22;7.20;;;3.00;;
7359;SDS011;3720;48.274;7.796;2023-06-05T10:39:10;6.65;;;3.05;;
7359;SDS011;3720;48.274;7.796;2023-06-05T10:41:43;6.18;;;3.15;;
7359;SDS011;3720;48.274;7.796;2023-06-05T10:44:16;4.28;;;2.90;;
7359;SDS011;3720;48.274;7.796;2023-06-05T10:46:48;8.23;;;3.38;;
7359;SDS011;3720;48.274;7.796;2023-06-05T10:49:20;8.35;;;2.95;;
7359;SDS011;3720;48.274;7.796;2023-06-05T10:51:53;12.25;;;3.25;;
7359;SDS011;3720;48.274;7.796;2023-06-05T10:57:26;6.07;;;3.17;;
7359;SDS011;3720;48.274;7.796;2023-06-05T11:00:17;6.72;;;3.20;;
7359;SDS011;3720;48.274;7.796;2023-06-05T11:02:49;8.15;;;3.30;;
7359;SDS011;3720;48.274;7.796;2023-06-05T11:05:23;5.97;;;3.00;;
7359;SDS011;3720;48.274;7.796;2023-06-05T11:08:15;6.07;;;3.00;;
7359;SDS011;3720;48.274;7.796;2023-06-05T11:11:02;5.75;;;3.10;;
7359;SDS011;3720;48.274;7.796;2023-06-05T11:13:51;6.53;;;2.92;;
7359;SDS011;3720;48.274;7.796;2023-06-05T11:16:27;7.35;;;2.97;;
7359;SDS011;3720;48.274;7.796;2023-06-05T11:22:07;7.32;;;2.70;;
7359;SDS011;3720;48.274;7.796;2023-06-05T11:24:42;5.47;;;2.60;;
7359;SDS011;3720;48.274;7.796;2023-06-05T11:30:13;8.98;;;3.10;;
7359;SDS011;3720;48.274;7.796;2023-06-05T11:32:46;6.50;;;2.90;;
7359;SDS011;3720;48.274;7.796;2023-06-05T11:35:20;5.18;;;3.10;;
7359;SDS011;3720;48.274;7.796;2023-06-05T11:38:06;4.82;;;2.80;;
7359;SDS011;3720;48.274;7.796;2023-06-05T11:40:41;6.10;;;3.15;;
7359;SDS011;3720;48.274;7.796;2023-06-05T11:43:14;5.13;;;3.25;;
7359;SDS011;3720;48.274;7.796;2023-06-05T11:45:50;6.05;;;3.08;;
7359;SDS011;3720;48.274;7.796;2023-06-05T11:48:23;5.07;;;2.80;;
7359;SDS011;3720;48.274;7.796;2023-06-05T11:50:56;5.72;;;2.90;;
7359;SDS011;3720;48.274;7.796;2023-06-05T11:53:30;4.63;;;2.90;;
7359;SDS011;3720;48.274;7.796;2023-06-05T11:56:11;3.67;;;2.50;;
7359;SDS011;3720;48.274;7.796;2023-06-05T11:58:48;5.07;;;2.60;;
7359;SDS011;3720;48.274;7.796;2023-06-05T12:01:20;4.85;;;3.03;;
7359;SDS011;3720;48.274;7.796;2023-06-05T12:04:01;4.93;;;3.00;;
7359;SDS011;3720;48.274;7.796;2023-06-05T12:06:39;5.90;;;2.78;;
7359;SDS011;3720;48.274;7.796;2023-06-05T12:09:13;5.10;;;2.80;;
7359;SDS011;3720;48.274;7.796;2023-06-05T12:11:47;3.92;;;2.80;;
7359;SDS011;3720;48.274;7.796;2023-06-05T12:14:30;6.50;;;2.95;;
7359;SDS011;3720;48.274;7.796;2023-06-05T12:17:10;5.18;;;2.85;;
7359;SDS011;3720;48.274;7.796;2023-06-05T12:19:43;6.63;;;2.83;;
7359;SDS011;3720;48.274;7.796;2023-06-05T12:22:23;4.68;;;2.97;;
7359;SDS011;3720;48.274;7.796;2023-06-05T12:24:55;4.05;;;3.10;;
7359;SDS011;3720;48.274;7.796;2023-06-05T12:27:30;4.30;;;2.97;;
7359;SDS011;3720;48.274;7.796;2023-06-05T12:30:04;5.00;;;3.13;;
7359;SDS011;3720;48.274;7.796;2023-06-05T12:32:37;5.50;;;3.00;;
7359;SDS011;3720;48.274;7.796;2023-06-05T12:35:17;5.43;;;3.00;;
7359;SDS011;3720;48.274;7.796;2023-06-05T12:37:49;5.97;;;3.15;;
7359;SDS011;3720;48.274;7.796;2023-06-05T12:40:22;5.55;;;3.03;;
7359;SDS011;3720;48.274;7.796;2023-06-05T12:42:55;4.03;;;2.80;;
7359;SDS011;3720;48.274;7.796;2023-06-05T12:45:27;5.85;;;3.05;;
7359;SDS011;3720;48.274;7.796;2023-06-05T12:48:00;5.43;;;3.15;;
7359;SDS011;3720;48.274;7.796;2023-06-05T12:50:32;3.50;;;3.00;;
7359;SDS011;3720;48.274;7.796;2023-06-05T12:53:04;4.10;;;3.00;;
7359;SDS011;3720;48.274;7.796;2023-06-05T12:55:35;7.88;;;3.13;;
7359;SDS011;3720;48.274;7.796;2023-06-05T12:58:09;6.63;;;3.45;;
7359;SDS011;3720;48.274;7.796;2023-06-05T13:00:41;5.95;;;3.20;;
7359;SDS011;3720;48.274;7.796;2023-06-05T13:03:14;6.40;;;3.33;;
7359;SDS011;3720;48.274;7.796;2023-06-05T13:05:46;5.10;;;3.40;;
7359;SDS011;3720;48.274;7.796;2023-06-05T13:08:18;3.72;;;3.03;;
7359;SDS011;3720;48.274;7.796;2023-06-05T13:10:50;6.32;;;3.03;;
7359;SDS011;3720;48.274;7.796;2023-06-05T13:13:23;4.45;;;3.20;;
7359;SDS011;3720;48.274;7.796;2023-06-05T13:15:55;3.63;;;3.30;;
7359;SDS011;3720;48.274;7.796;2023-06-05T13:18:27;5.28;;;3.30;;
7359;SDS011;3720;48.274;7.796;2023-06-05T13:21:00;6.80;;;3.30;;
7359;SDS011;3720;48.274;7.796;2023-06-05T13:23:32;4.80;;;3.15;;
7359;SDS011;3720;48.274;7.796;2023-06-05T13:26:04;4.30;;;3.20;;
7359;SDS011;3720;48.274;7.796;2023-06-05T13:28:37;8.38;;;3.42;;
7359;SDS011;3720;48.274;7.796;2023-06-05T13:31:09;4.65;;;3.40;;
7359;SDS011;3720;48.274;7.796;2023-06-05T13:33:43;4.65;;;3.20;;
7359;SDS011;3720;48.274;7.796;2023-06-05T13:36:15;5.13;;;3.50;;
7359;SDS011;3720;48.274;7.796;2023-06-05T13:38:47;4.88;;;3.42;;
7359;SDS011;3720;48.274;7.796;2023-06-05T13:41:19;7.53;;;3.30;;
7359;SDS011;3720;48.274;7.796;2023-06-05T13:43:53;5.95;;;3.63;;
7359;SDS011;3720;48.274;7.796;2023-06-05T13:46:27;6.70;;;3.38;;
7359;SDS011;3720;48.274;7.796;2023-06-05T13:49:00;5.15;;;3.40;;
7359;SDS011;3720;48.274;7.796;2023-06-05T13:51:31;6.53;;;3.55;;
7359;SDS011;3720;48.274;7.796;2023-06-05T13:54:03;4.18;;;3.60;;
7359;SDS011;3720;48.274;7.796;2023-06-05T13:56:36;5.72;;;3.65;;
7359;SDS011;3720;48.274;7.796;2023-06-05T13:59:09;5.43;;;3.38;;
7359;SDS011;3720;48.274;7.796;2023-06-05T14:01:41;6.03;;;3.67;;
7359;SDS011;3720;48.274;7.796;2023-06-05T14:04:13;6.00;;;3.58;;
7359;SDS011;3720;48.274;7.796;2023-06-05T14:06:45;5.10;;;3.63;;
7359;SDS011;3720;48.274;7.796;2023-06-05T14:09:16;4.68;;;3.60;;
7359;SDS011;3720;48.274;7.796;2023-06-05T14:11:49;8.88;;;3.90;;
7359;SDS011;3720;48.274;7.796;2023-06-05T14:14:22;7.53;;;3.92;;
7359;SDS011;3720;48.274;7.796;2023-06-05T14:16:55;5.03;;;3.67;;
7359;SDS011;3720;48.274;7.796;2023-06-05T14:19:27;7.07;;;4.10;;
7359;SDS011;3720;48.274;7.796;2023-06-05T14:21:59;7.57;;;4.20;;
7359;SDS011;3720;48.274;7.796;2023-06-05T14:24:31;5.35;;;3.90;;
7359;SDS011;3720;48.274;7.796;2023-06-05T14:27:03;5.63;;;4.00;;
7359;SDS011;3720;48.274;7.796;2023-06-05T14:29:39;6.25;;;3.88;;
7359;SDS011;3720;48.274;7.796;2023-06-05T14:32:11;8.88;;;4.40;;
7359;SDS011;3720;48.274;7.796;2023-06-05T14:34:43;7.80;;;4.50;;
7359;SDS011;3720;48.274;7.796;2023-06-05T14:37:14;6.55;;;4.32;;
7359;SDS011;3720;48.274;7.796;2023-06-05T14:39:46;7.25;;;4.35;;
7359;SDS011;3720;48.274;7.796;2023-06-05T14:42:21;7.20;;;4.22;;
7359;SDS011;3720;48.274;7.796;2023-06-05T14:44:54;8.50;;;4.53;;
7359;SDS011;3720;48.274;7.796;2023-06-05T14:47:30;6.55;;;4.40;;
7359;SDS011;3720;48.274;7.796;2023-06-05T14:50:02;8.03;;;4.70;;
7359;SDS011;3720;48.274;7.796;2023-06-05T14:52:35;8.30;;;4.57;;
7359;SDS011;3720;48.274;7.796;2023-06-05T14:55:07;6.70;;;4.65;;
7359;SDS011;3720;48.274;7.796;2023-06-05T14:57:40;5.70;;;4.40;;
7359;SDS011;3720;48.274;7.796;2023-06-05T15:00:13;8.90;;;4.93;;
7359;SDS011;3720;48.274;7.796;2023-06-05T15:02:46;5.88;;;4.70;;
7359;SDS011;3720;48.274;7.796;2023-06-05T15:05:18;5.05;;;4.10;;
7359;SDS011;3720;48.274;7.796;2023-06-05T15:07:50;5.82;;;4.35;;
7359;SDS011;3720;48.274;7.796;2023-06-05T15:10:23;6.80;;;4.55;;
7359;SDS011;3720;48.274;7.796;2023-06-05T15:12:55;8.20;;;4.40;;
7359;SDS011;3720;48.274;7.796;2023-06-05T15:15:28;7.30;;;4.40;;
7359;SDS011;3720;48.274;7.796;2023-06-05T15:18:00;4.95;;;4.13;;
7359;SDS011;3720;48.274;7.796;2023-06-05T15:20:32;5.47;;;4.40;;
7359;SDS011;3720;48.274;7.796;2023-06-05T15:23:04;6.70;;;4.28;;
7359;SDS011;3720;48.274;7.796;2023-06-05T15:25:36;8.18;;;4.30;;
7359;SDS011;3720;48.274;7.796;2023-06-05T15:28:08;6.97;;;4.25;;
7359;SDS011;3720;48.274;7.796;2023-06-05T15:30:43;8.60;;;4.32;;
7359;SDS011;3720;48.274;7.796;2023-06-05T15:33:17;6.73;;;4.33;;
7359;SDS011;3720;48.274;7.796;2023-06-05T15:35:49;7.22;;;4.50;;
7359;SDS011;3720;48.274;7.796;2023-06-05T15:38:20;6.63;;;4.20;;
7359;SDS011;3720;48.274;7.796;2023-06-05T15:40:53;8.70;;;4.07;;
7359;SDS011;3720;48.274;7.796;2023-06-05T15:43:26;4.30;;;3.60;;
7359;SDS011;3720;48.274;7.796;2023-06-05T15:45:59;7.03;;;3.95;;
7359;SDS011;3720;48.274;7.796;2023-06-05T15:48:31;6.20;;;4.05;;
7359;SDS011;3720;48.274;7.796;2023-06-05T15:51:03;5.93;;;4.10;;
7359;SDS011;3720;48.274;7.796;2023-06-05T15:53:35;7.20;;;4.15;;
7359;SDS011;3720;48.274;7.796;2023-06-05T15:56:07;4.30;;;3.90;;
7359;SDS011;3720;48.274;7.796;2023-06-05T15:58:39;4.30;;;3.88;;
7359;SDS011;3720;48.274;7.796;2023-06-05T16:01:12;6.43;;;3.88;;
7359;SDS011;3720;48.274;7.796;2023-06-05T16:03:45;5.60;;;3.97;;